NCAR-RAP Real-Time Weather Data

Output produced by METARs form (08 May 2021  17:08 UTC)
found at http://weather.rap.ucar.edu/surface/
 
KIAH 081653Z 17016G22KT 10SM SCT032 BKN045 BKN250 29/20 A3000 RMK AO2 SLP160 T02890200
KIAH 081640Z 17015G21KT 10SM SCT032 BKN045 BKN250 28/20 A3000 RMK AO2 T02830200
KIAH 081553Z 17009G20KT 10SM BKN026 BKN036 BKN250 27/20 A3000 RMK AO2 SLP159 T02720200
KIAH 081453Z 17007KT 10SM BKN021 26/21 A3002 RMK AO2 SLP164 T02560206 51004
KIAH 081353Z 16007KT 10SM BKN020 23/19 A3002 RMK AO2 SLP164 T02330194
KIAH 081305Z 15004KT 10SM BKN017 BKN180 BKN250 22/19 A3002 RMK AO2 T02170189
KIAH 081253Z 15006KT 10SM SCT017 BKN180 BKN250 21/19 A3002 RMK AO2 SLP164 T02110189
KIAH 081153Z 16004KT 10SM FEW180 BKN250 18/17 A3000 RMK AO2 SLP160 T01830172 10200 20167 55001
KIAH 081053Z COR 00000KT 10SM BKN250 17/16 A3000 RMK AO2 SLP158 T01720161
KIAH 080953Z 17003KT 10SM BKN250 18/16 A3000 RMK AO2 SLP159 T01830161
KIAH 080853Z 18004KT 10SM BKN250 18/16 A3001 RMK AO2 SLP161 T01780161 58015
KIAH 080753Z 18004KT 10SM SCT250 19/16 A3002 RMK AO2 SLP165 T01890156
KIAH 080653Z 00000KT 10SM CLR 17/15 A3004 RMK AO2 SLP172 T01720150
KIAH 080553Z 17003KT 10SM CLR 18/14 A3005 RMK AO2 SLP176 T01830144 10267 20172 403110156 50004
KIAH 080453Z 18005KT 10SM FEW250 21/14 A3005 RMK AO2 SLP177 T02110139
KIAH 080353Z 17005KT 10SM SCT250 22/13 A3004 RMK AO2 SLP172 T02170128
KIAH 080253Z 18006KT 10SM SCT230 23/11 A3004 RMK AO2 SLP172 T02330111 55003
KIAH 080153Z 17006KT 10SM BKN230 24/09 A3003 RMK AO2 SLP167 T02390089
KIAH 080053Z 17007KT 10SM BKN230 25/11 A3003 RMK AO2 SLP169 T02500106
KIAH 072353Z 14010KT 10SM BKN230 27/10 A3005 RMK AO2 SLP175 T02670100 10311 20267 56019
KIAH 072253Z 15011KT 10SM BKN250 28/09 A3007 RMK AO2 SLP181 T02780089
KIAH 072153Z 14012KT 10SM BKN250 28/07 A3008 RMK AO2 SLP186 T02830072
KIAH 072053Z 16009KT 10SM BKN250 30/09 A3010 RMK AO2 SLP194 T03000089 58021
KIAH 071953Z 15012G19KT 140V200 10SM SCT250 30/09 A3013 RMK AO2 SLP203 T03000094
KIAH 071853Z 15012KT 10SM SCT250 30/08 A3015 RMK AO2 SLP210 T03000083
KIAH 071753Z 13011G17KT 10SM SCT250 29/10 A3017 RMK AO2 SLP215 T02890100 10294 20161 58008
KIAH 071653Z 10010KT 10SM SCT250 28/12 A3019 RMK AO2 SLP223 T02830122
KIAH 071553Z 10009KT 10SM FEW250 28/13 A3020 RMK AO2 SLP226 T02780128
KIAH 071453Z 13007KT 10SM FEW250 26/14 A3019 RMK AO2 SLP223 T02560139 51009 $
KIAH 071353Z 01003KT 10SM SCT250 23/16 A3019 RMK AO2 SLP222 T02330161 $
KIAH 071253Z 00000KT 10SM FEW250 19/16 A3018 RMK AO2 SLP221 T01940161
KIAH 071153Z 00000KT 10SM FEW250 16/14 A3016 RMK AO2 SLP214 T01610139 10194 20156 53008
KIAH 071053Z 00000KT 10SM CLR 16/14 A3015 RMK AO2 SLP208 T01610139
KIAH 070953Z 00000KT 10SM CLR 16/14 A3014 RMK AO2 SLP205 T01610139
KIAH 070853Z 00000KT 10SM CLR 17/14 A3014 RMK AO2 SLP205 T01720144 55002
KIAH 070753Z 00000KT 10SM CLR 17/14 A3013 RMK AO2 SLP203 T01720144
KIAH 070653Z 00000KT 10SM CLR 18/15 A3014 RMK AO2 SLP206 T01830150
KIAH 070553Z 00000KT 10SM CLR 19/14 A3014 RMK AO2 SLP207 T01940144 10283 20189 403060156 51005
KIAH 070453Z 00000KT 10SM CLR 21/14 A3014 RMK AO2 SLP207 T02060144
KIAH 070353Z 04004KT 10SM CLR 22/14 A3014 RMK AO2 SLP205 T02170144
KIAH 070253Z 02003KT 10SM CLR 22/14 A3013 RMK AO2 SLP202 T02170144 53011
KIAH 070153Z VRB03KT 10SM CLR 24/14 A3011 RMK AO2 SLP196 T02440139
KIAH 070053Z 03005KT 10SM CLR 26/13 A3009 RMK AO2 SLP190 T02610133
KIAH 062353Z 02007KT 10SM CLR 28/13 A3010 RMK AO2 SLP191 T02830133 10306 20278 56008
KIAH 062253Z 03009KT 10SM CLR 29/13 A3010 RMK AO2 SLP191 T02940133
KIAH 062153Z 06003KT 10SM CLR 29/12 A3010 RMK AO2 SLP192 T02940122
KIAH 062053Z 02008KT 10SM CLR 29/14 A3012 RMK AO2 SLP198 T02940139 56015
KIAH 061953Z 04006KT 10SM CLR 29/14 A3013 RMK AO2 SLP203 T02940139
KIAH 061853Z 05008KT 10SM CLR 28/14 A3015 RMK AO2 SLP209 T02830139
KIAH 061753Z 04009KT 10SM CLR 27/14 A3016 RMK AO2 SLP214 T02720144 10278 20161 58006